MAPA DE AEROPUERTO

INFORMACIÓN METAR y TAF

METAR FOR LXGB
ADDS - METARS form results

(1221 UTC 26 February 2021)
Data provider http://aviationweather.gov/metar/data/
 
METAR text: LXGB 261150Z 09021G31KT 9000 HZ SCT015 OVC025 15/12 Q1026 TEMPO FEW015
Conditions at: LXGB (GIBRALTAR (CIV/M, GI) observed 1150 UTC 26 February 2021
Temperature: 15.0°C (59°F)
Dewpoint: 12.0°C (54°F) [RH = 82%]
Pressure (altimeter): 30.30 inches Hg (1026.0 mb)
Winds: from the E (90 degrees) at 24 MPH (21 knots; 10.8 m/s)
gusting to 36 MPH (31 knots; 15.9 m/s)
Visibility: 6 miles ( 9 km)
Ceiling: 2500 feet AGL
Clouds: scattered clouds at 1500 feet AGL
overcast cloud deck at 2500 feet AGL
Weather: HZ  (haze)

METAR text: LXGB 261123Z 09020G30KT 9000 HZ SCT014 BKN025 15/12 Q1026 TEMPO FEW014
Conditions at: LXGB (GIBRALTAR (CIV/M, GI) observed 1123 UTC 26 February 2021
Temperature: 15.0°C (59°F)
Dewpoint: 12.0°C (54°F) [RH = 82%]
Pressure (altimeter): 30.30 inches Hg (1026.0 mb)
Winds: from the E (90 degrees) at 23 MPH (20 knots; 10.3 m/s)
gusting to 34 MPH (30 knots; 15.4 m/s)
Visibility: 6 miles ( 9 km)
Ceiling: 2500 feet AGL
Clouds: scattered clouds at 1400 feet AGL
broken clouds at 2500 feet AGL
Weather: HZ  (haze)

Forecast for: LXGB (GIBRALTAR (CIV/M, GI)
Text: TAF LXGB 261045Z 2612/2621 10018G28KT 9999 FEW010 BKN025 520002
Forecast period: 1200 to 2100 UTC 26 February 2021
Forecast type: FROM: standard forecast or significant change
Winds: from the E (100 degrees) at 21 MPH (18 knots; 9.3 m/s)
gusting to 32 MPH (28 knots; 14.4 m/s)
Visibility: 6 or more miles (10+ km)
Ceiling: 2500 feet AGL
Clouds: few clouds at 1000 feet AGL
broken clouds at 2500 feet AGL
Weather: no significant weather forecast for this period
Text: TEMPO 2612/2618 6000 -RADZ BKN014
Forecast period: 1200 to 1800 UTC 26 February 2021
Forecast type: TEMPORARY: The following changes expected for less than half the time period
Visibility: 4 miles (6 km)
Ceiling: 1400 feet AGL
Clouds: broken clouds at 1400 feet AGL
Weather: -RA -DZ  (light rain, light drizzle)